Terminal Aerodrome Forecast
Issued by NWS

Home | Current Version | Previous Version | Text Only | Print | Product List | Glossary On
Versions: 1 2 3 4 5 6 7 8 9 10 11 12 13 14
839
FTUS45 KABQ 301736
TAFSAF
TAF
KSAF 301736Z 3018/3118 21009KT P6SM FEW050
     FM302200 22010G18KT P6SM VCTS SCT060CB
     FM310000 18011KT P6SM VCSH BKN070
      TEMPO 3100/3103 6SM -TSRA OVC035CB
     FM310600 VRB04KT P6SM BKN080=

USA.gov is the U.S. government's official web portal to all federal, state and local government web resources and services.